createdAt,value
2022-10-24T00:01:43.976Z,1003.53
2022-10-24T00:06:46.740Z,1003.618
2022-10-24T00:11:51.981Z,1003.562
2022-10-24T00:21:57.317Z,1003.637
2022-10-24T00:26:59.918Z,1003.563
2022-10-24T00:32:03.073Z,1003.451
2022-10-24T00:37:08.886Z,1003.396
2022-10-24T00:42:12.484Z,1003.48
2022-10-24T00:52:17.908Z,1003.643
2022-10-24T01:02:23.458Z,1003.955
2022-10-24T01:07:26.015Z,1003.925
2022-10-24T01:12:28.680Z,1003.875
2022-10-24T01:22:34.288Z,1003.844
2022-10-24T01:27:37.382Z,1003.561
2022-10-24T01:32:44.472Z,1003.314
2022-10-24T01:37:47.478Z,1003.402
2022-10-24T01:42:52.561Z,1003.332
2022-10-24T01:47:55.328Z,1003.305
2022-10-24T01:52:57.939Z,1003.224
2022-10-24T02:03:06.215Z,1002.988
2022-10-24T02:13:12.085Z,1002.901
2022-10-24T02:18:14.787Z,1002.739
2022-10-24T02:23:17.263Z,1002.881
2022-10-24T02:28:22.782Z,1002.874
2022-10-24T02:33:25.267Z,1002.825
2022-10-24T02:38:27.537Z,1002.753
2022-10-24T02:43:30.419Z,1002.743
2022-10-24T02:48:32.970Z,1002.663
2022-10-24T02:53:35.590Z,1002.793
2022-10-24T02:58:38.327Z,1002.722
2022-10-24T03:03:41.127Z,1002.721
2022-10-24T03:08:43.820Z,1002.684
2022-10-24T03:13:46.572Z,1002.724
2022-10-24T03:18:49.140Z,1002.755
2022-10-24T03:23:51.822Z,1002.759
2022-10-24T03:28:54.446Z,1002.734
2022-10-24T03:33:57.358Z,1002.714
2022-10-24T03:39:00.170Z,1002.75
2022-10-24T03:44:03.052Z,1002.758
2022-10-24T03:49:06.052Z,1002.681
2022-10-24T03:54:08.870Z,1002.76
2022-10-24T03:59:11.460Z,1002.776
2022-10-24T04:09:17.566Z,1002.773
2022-10-24T04:14:20.255Z,1002.756
2022-10-24T04:19:22.816Z,1002.695
2022-10-24T04:24:25.387Z,1002.66
2022-10-24T04:29:28.277Z,1002.705
2022-10-24T04:34:30.701Z,1002.732
2022-10-24T04:39:36.407Z,1002.787
2022-10-24T04:44:39.343Z,1002.7
2022-10-24T04:54:44.737Z,1002.789
2022-10-24T04:59:47.436Z,1002.858
2022-10-24T05:04:50.257Z,1002.944
2022-10-24T05:09:52.957Z,1003
2022-10-24T05:14:55.728Z,1002.968
2022-10-24T05:25:03.976Z,1002.922
2022-10-24T05:30:06.812Z,1003.005
2022-10-24T05:35:09.756Z,1002.905
2022-10-24T05:40:12.309Z,1002.85
2022-10-24T06:00:22.999Z,1002.84
2022-10-24T06:05:25.806Z,1002.824
2022-10-24T06:10:28.584Z,1002.714
2022-10-24T06:15:31.453Z,1002.572
2022-10-24T06:20:34.135Z,1002.597
2022-10-24T06:25:36.954Z,1002.696
2022-10-24T06:35:42.457Z,1002.612
2022-10-24T06:55:55.295Z,1002.87
2022-10-24T07:00:57.978Z,1002.966
2022-10-24T07:06:00.960Z,1003.14
2022-10-24T07:21:11.851Z,1003.118
2022-10-24T07:26:14.612Z,1003.181
2022-10-24T07:31:20.077Z,1003.219
2022-10-24T07:36:25.582Z,1003.137
2022-10-24T07:41:31.230Z,1003.171
2022-10-24T07:51:45.670Z,1003.241
2022-10-24T07:56:48.343Z,1003.288
2022-10-24T08:01:51.112Z,1003.306
2022-10-24T08:06:53.846Z,1003.14
2022-10-24T08:11:56.525Z,1003.116
2022-10-24T08:16:59.190Z,1003.221
2022-10-24T08:22:02.044Z,1003.131
2022-10-24T08:27:04.933Z,1003.175
2022-10-24T08:32:07.937Z,1003.185
2022-10-24T08:37:10.567Z,1003.102
2022-10-24T08:42:13.264Z,1003.141
2022-10-24T08:47:15.888Z,1003.028
2022-10-24T08:52:21.559Z,1003.038
2022-10-24T08:57:24.100Z,1002.998
2022-10-24T09:02:26.799Z,1002.92
2022-10-24T09:07:29.383Z,1002.93
2022-10-24T09:12:31.854Z,1002.974
2022-10-24T09:17:34.689Z,1003.055
2022-10-24T09:22:39.566Z,1002.981
2022-10-24T09:27:41.361Z,1003.017
2022-10-24T09:32:44.409Z,1002.952
2022-10-24T09:37:47.718Z,1003.007
2022-10-24T09:42:49.988Z,1002.954
2022-10-24T09:47:52.661Z,1002.928
2022-10-24T09:52:56.227Z,1003.034
2022-10-24T09:57:58.828Z,1003.077
2022-10-24T10:03:01.654Z,1003.071
2022-10-24T10:08:04.353Z,1003.037
2022-10-24T10:13:07.092Z,1002.993
2022-10-24T10:18:09.876Z,1002.888
2022-10-24T10:23:12.530Z,1002.956
2022-10-24T10:28:15.046Z,1002.946
2022-10-24T10:33:17.964Z,1002.914
2022-10-24T10:38:20.635Z,1002.975
2022-10-24T10:43:23.374Z,1002.954
2022-10-24T10:48:26.137Z,1002.957
2022-10-24T10:53:28.913Z,1002.97
2022-10-24T10:58:31.554Z,1002.97
2022-10-24T11:03:34.038Z,1002.895
2022-10-24T11:08:36.835Z,1002.881
2022-10-24T11:13:39.294Z,1002.808
2022-10-24T11:18:41.964Z,1002.816
2022-10-24T11:23:44.718Z,1002.77
2022-10-24T11:28:47.347Z,1002.791
2022-10-24T11:33:50.084Z,1002.869
2022-10-24T11:38:52.860Z,1002.967
2022-10-24T11:43:55.234Z,1002.89
2022-10-24T11:48:58.075Z,1002.732
2022-10-24T11:54:00.702Z,1002.779
2022-10-24T11:59:03.156Z,1002.838
2022-10-24T12:04:05.829Z,1002.683
2022-10-24T12:09:08.731Z,1002.673
2022-10-24T12:14:11.333Z,1002.505
2022-10-24T12:19:14.125Z,1002.526
2022-10-24T12:24:16.776Z,1002.493
2022-10-24T12:29:19.446Z,1002.329
2022-10-24T12:34:22.191Z,1002.312
2022-10-24T12:44:27.709Z,1002.233
2022-10-24T12:49:30.365Z,1002.232
2022-10-24T12:54:33.019Z,1002.185
2022-10-24T12:59:35.768Z,1002.161
2022-10-24T13:04:38.202Z,1002.131
2022-10-24T13:09:40.819Z,1002.136
2022-10-24T13:14:43.468Z,1002.045
2022-10-24T13:19:50.031Z,1002.167
2022-10-24T13:24:52.937Z,1002.172
2022-10-24T13:34:58.343Z,1002.097
2022-10-24T13:40:01.265Z,1002.294
2022-10-24T13:45:03.467Z,1002.263
2022-10-24T13:50:06.248Z,1002.439
2022-10-24T14:00:11.618Z,1002.489
2022-10-24T14:05:14.451Z,1002.498
2022-10-24T14:10:17.137Z,1002.396
2022-10-24T14:15:19.888Z,1002.466
2022-10-24T14:20:22.402Z,1002.415
2022-10-24T14:25:25.584Z,1002.416
2022-10-24T14:30:30.755Z,1002.488
2022-10-24T14:35:31.716Z,1002.414
2022-10-24T14:40:34.397Z,1002.545
2022-10-24T14:45:37.219Z,1002.61
2022-10-24T14:50:40.308Z,1002.623
2022-10-24T14:55:42.866Z,1002.615
2022-10-24T15:00:45.246Z,1002.666
2022-10-24T15:05:47.849Z,1002.547
2022-10-24T15:16:20.572Z,1002.607
2022-10-24T15:21:22.993Z,1002.606
2022-10-24T15:26:25.544Z,1002.707
2022-10-24T15:31:28.245Z,1002.695
2022-10-24T15:36:31.543Z,1002.583
2022-10-24T15:41:33.406Z,1002.578
2022-10-24T15:46:36.105Z,1002.624
2022-10-24T15:51:38.603Z,1002.608
2022-10-24T15:56:41.286Z,1002.702
2022-10-24T16:01:43.997Z,1002.752
2022-10-24T16:06:46.560Z,1002.745
2022-10-24T16:11:49.137Z,1002.718
2022-10-24T16:16:55.317Z,1002.753
2022-10-24T16:21:54.719Z,1002.816
2022-10-24T16:26:57.097Z,1002.893
2022-10-24T16:32:02.428Z,1002.959
2022-10-24T16:37:05.045Z,1002.916
2022-10-24T16:42:07.742Z,1003.013
2022-10-24T16:47:10.255Z,1003.043
2022-10-24T16:52:12.797Z,1003.09
2022-10-24T16:57:15.409Z,1003.138
2022-10-24T17:07:23.530Z,1003.129
2022-10-24T17:12:26.034Z,1003.09
2022-10-24T17:17:28.772Z,1003.119
2022-10-24T17:27:33.953Z,1003.056
2022-10-24T17:32:36.582Z,1003.184
2022-10-24T17:37:39.315Z,1003.146
2022-10-24T17:42:42.209Z,1003.229
2022-10-24T17:52:48.187Z,1003.278
2022-10-24T17:57:50.366Z,1003.295
2022-10-24T18:02:52.759Z,1003.33
2022-10-24T18:07:55.359Z,1003.39
2022-10-24T18:18:00.852Z,1003.388
2022-10-24T18:23:03.523Z,1003.437
2022-10-24T18:33:09.271Z,1003.513
2022-10-24T18:38:11.885Z,1003.48
2022-10-24T18:43:14.335Z,1003.444
2022-10-24T18:48:16.728Z,1003.456
2022-10-24T18:53:21.459Z,1003.528
2022-10-24T18:58:22.201Z,1003.475
2022-10-24T19:03:24.996Z,1003.448
2022-10-24T19:08:27.624Z,1003.509
2022-10-24T19:13:30.052Z,1003.551
2022-10-24T19:18:32.701Z,1003.525
2022-10-24T19:23:35.427Z,1003.566
2022-10-24T19:28:38.170Z,1003.509
2022-10-24T19:33:40.876Z,1003.577
2022-10-24T19:38:43.645Z,1003.622
2022-10-24T19:43:46.016Z,1003.671
2022-10-24T19:48:48.670Z,1003.58
2022-10-24T19:53:51.404Z,1003.615
2022-10-24T19:58:53.966Z,1003.643
2022-10-24T20:03:56.565Z,1003.621
2022-10-24T20:14:01.764Z,1003.737
2022-10-24T20:19:04.264Z,1003.735
2022-10-24T20:24:06.846Z,1003.732
2022-10-24T20:34:12.073Z,1003.821
2022-10-24T20:39:14.871Z,1003.844
2022-10-24T20:44:17.531Z,1003.935
2022-10-24T20:54:22.957Z,1003.974
2022-10-24T20:59:25.631Z,1004.033
2022-10-24T21:04:28.552Z,1004.089
2022-10-24T21:09:31.031Z,1004.156
2022-10-24T21:14:33.695Z,1004.095
2022-10-24T21:19:36.655Z,1004.141
2022-10-24T21:24:39.212Z,1004.171
2022-10-24T21:29:41.825Z,1004.142
2022-10-24T21:34:44.531Z,1004.23
2022-10-24T21:39:47.227Z,1004.242
2022-10-24T21:44:49.907Z,1004.302
2022-10-24T21:49:52.288Z,1004.357
2022-10-24T21:54:54.841Z,1004.375
2022-10-24T21:59:57.415Z,1004.425
2022-10-24T22:04:59.986Z,1004.446
2022-10-24T22:10:02.900Z,1004.454
2022-10-24T22:15:05.536Z,1004.431
2022-10-24T22:20:08.175Z,1004.552
2022-10-24T22:25:10.866Z,1004.549
2022-10-24T22:30:13.510Z,1004.642
2022-10-24T22:35:16.064Z,1004.698
2022-10-24T22:40:19.015Z,1004.745
2022-10-24T22:45:21.558Z,1004.821
2022-10-24T22:50:26.927Z,1004.802
2022-10-24T22:55:29.873Z,1004.882
2022-10-24T23:00:32.484Z,1004.875
2022-10-24T23:05:35.193Z,1004.861
2022-10-24T23:10:38.091Z,1004.876
2022-10-24T23:15:40.616Z,1004.859
2022-10-24T23:20:43.210Z,1004.923
2022-10-24T23:25:45.945Z,1004.929
2022-10-24T23:30:48.615Z,1004.976
2022-10-24T23:35:51.502Z,1004.989
2022-10-24T23:45:56.926Z,1004.981
2022-10-24T23:56:02.071Z,1005.072
